Aviation Digital Data Service (ADDS)

Output produced by METARs form (0818 UTC 19 April 2019)
found at http://www.aviationweather.gov/metar/data/
 
METAR text: MSLP 190750Z VRB01KT 9999 FEW023 SCT030 26/24 Q1010 A2982 NOSIG RMK HZ
Conditions at: MSLP (EL SALVADOR INT , SV) observed 0750 UTC 19 April 2019
Temperature: 26.0°C (79°F)
Dewpoint: 24.0°C (75°F) [RH = 89%]
Pressure (altimeter): 29.82 inches Hg (1010.0 mb)
Winds: variable direction winds at 1 MPH (1 knots; 0.5 m/s)
Visibility: 6 or more miles (10+ km)
Ceiling: at least 12,000 feet AGL
Clouds: few clouds at 2300 feet AGL
scattered clouds at 3000 feet AGL
Weather: no significant weather observed at this time

METAR text: MSLP 190650Z VRB01KT 9999 SCT023 SCT030 25/24 Q1010 A2984 NOSIG RMK HZ
Conditions at: MSLP (EL SALVADOR INT , SV) observed 0650 UTC 19 April 2019
Temperature: 25.0°C (77°F)
Dewpoint: 24.0°C (75°F) [RH = 94%]
Pressure (altimeter): 29.82 inches Hg (1010.0 mb)
Winds: variable direction winds at 1 MPH (1 knots; 0.5 m/s)
Visibility: 6 or more miles (10+ km)
Ceiling: at least 12,000 feet AGL
Clouds: scattered clouds at 2300 feet AGL
scattered clouds at 3000 feet AGL
Weather: no significant weather observed at this time

METAR text: MSLP 190550Z VRB01KT 9999 SCT023 BKN030 26/24 Q1010 A2983 NOSIG RMK HZ
Conditions at: MSLP (EL SALVADOR INT , SV) observed 0550 UTC 19 April 2019
Temperature: 26.0°C (79°F)
Dewpoint: 24.0°C (75°F) [RH = 89%]
Pressure (altimeter): 29.82 inches Hg (1010.0 mb)
Winds: variable direction winds at 1 MPH (1 knots; 0.5 m/s)
Visibility: 6 or more miles (10+ km)
Ceiling: 3000 feet AGL
Clouds: scattered clouds at 2300 feet AGL
broken clouds at 3000 feet AGL
Weather: no significant weather observed at this time

METAR text: MSLP 190450Z 32003KT 9999 SCT020 BKN035 27/24 Q1010 A2984 NOSIG RMK HZ
Conditions at: MSLP (EL SALVADOR INT , SV) observed 0450 UTC 19 April 2019
Temperature: 27.0°C (81°F)
Dewpoint: 24.0°C (75°F) [RH = 84%]
Pressure (altimeter): 29.82 inches Hg (1010.0 mb)
Winds: from the NW (320 degrees) at 3 MPH (3 knots; 1.5 m/s)
Visibility: 6 or more miles (10+ km)
Ceiling: 3500 feet AGL
Clouds: scattered clouds at 2000 feet AGL
broken clouds at 3500 feet AGL
Weather: no significant weather observed at this time

METAR text: MSLP 190350Z 32003KT 280V350 9999 FEW020 BKN035 28/23 Q1011 A2985 NOSIG RMK HZ
Conditions at: MSLP (EL SALVADOR INT , SV) observed 0350 UTC 19 April 2019
Temperature: 28.0°C (82°F)
Dewpoint: 23.0°C (73°F) [RH = 74%]
Pressure (altimeter): 29.85 inches Hg (1011.0 mb)
Winds: from the NW (320 degrees) at 3 MPH (3 knots; 1.5 m/s)
Visibility: 6 or more miles (10+ km)
Ceiling: 3500 feet AGL
Clouds: few clouds at 2000 feet AGL
broken clouds at 3500 feet AGL
Weather: no significant weather observed at this time

METAR text: MSLP 190250Z 30005KT 9999 FEW020 SCT035 28/23 Q1010 A2984 NOSIG RMK HZ
Conditions at: MSLP (EL SALVADOR INT , SV) observed 0250 UTC 19 April 2019
Temperature: 28.0°C (82°F)
Dewpoint: 23.0°C (73°F) [RH = 74%]
Pressure (altimeter): 29.82 inches Hg (1010.0 mb)
Winds: from the WNW (300 degrees) at 6 MPH (5 knots; 2.6 m/s)
Visibility: 6 or more miles (10+ km)
Ceiling: at least 12,000 feet AGL
Clouds: few clouds at 2000 feet AGL
scattered clouds at 3500 feet AGL
Weather: no significant weather observed at this time

METAR text: MSLP 190150Z 24004KT 210V280 9999 SCT020 SCT027 28/24 Q1010 A2982 NOSIG RMK HZ
Conditions at: MSLP (EL SALVADOR INT , SV) observed 0150 UTC 19 April 2019
Temperature: 28.0°C (82°F)
Dewpoint: 24.0°C (75°F) [RH = 79%]
Pressure (altimeter): 29.82 inches Hg (1010.0 mb)
Winds: from the WSW (240 degrees) at 5 MPH (4 knots; 2.1 m/s)
Visibility: 6 or more miles (10+ km)
Ceiling: at least 12,000 feet AGL
Clouds: scattered clouds at 2000 feet AGL
scattered clouds at 2700 feet AGL
Weather: no significant weather observed at this time

METAR text: MSLP 190050Z 24009KT 8000 SHRA FEW020 SCT027 BKN050 29/24 Q1009 A2979 TEMPO 6000 SHRA RMK HZ
Conditions at: MSLP (EL SALVADOR INT , SV) observed 0050 UTC 19 April 2019
Temperature: 29.0°C (84°F)
Dewpoint: 24.0°C (75°F) [RH = 74%]
Pressure (altimeter): 29.79 inches Hg (1009.0 mb)
Winds: from the WSW (240 degrees) at 10 MPH (9 knots; 4.6 m/s)
Visibility: 5 miles ( 8 km)
Ceiling: 5000 feet AGL
Clouds: few clouds at 2000 feet AGL
scattered clouds at 2700 feet AGL
broken clouds at 5000 feet AGL
Weather: SHRA  (rain showers)

METAR text: MSLP 190024Z 22006KT 190V250 9000 6000NE SHRA SCT020 BKN027 FEW037CB 29/24 Q1009 NOSIG RMK HZ
Conditions at: MSLP (EL SALVADOR INT , SV) observed 0024 UTC 19 April 2019
Temperature: 29.0°C (84°F)
Dewpoint: 24.0°C (75°F) [RH = 74%]
Pressure (altimeter): 29.79 inches Hg (1009.0 mb)
Winds: from the SW (220 degrees) at 7 MPH (6 knots; 3.1 m/s)
Visibility: 6 miles ( 9 km)
Ceiling: 2700 feet AGL
Clouds: scattered clouds at 2000 feet AGL
broken clouds at 2700 feet AGL
few clouds at 3700 feet AGL
Weather: SHRA  (rain showers)

METAR text: MSLP 182350Z 22006KT 9000 VCSH SCT020 BKN033 FEW037CB 29/24 Q1008 A2978 TEMPO 6000 SHRA RMK SH NE E HZ
Conditions at: MSLP (EL SALVADOR INT , SV) observed 2350 UTC 18 April 2019
Temperature: 29.0°C (84°F)
Dewpoint: 24.0°C (75°F) [RH = 74%]
Pressure (altimeter): 29.76 inches Hg (1008.0 mb)
Winds: from the SW (220 degrees) at 7 MPH (6 knots; 3.1 m/s)
Visibility: 6 miles ( 9 km)
Ceiling: 3300 feet AGL
Clouds: scattered clouds at 2000 feet AGL
broken clouds at 3300 feet AGL
few clouds at 3700 feet AGL
Weather: VCSH  (showers in vicinity)

METAR text: MSLP 182250Z 22006KT 180V250 9999 VCSH BKN023 29/24 Q1008 A2977 NOSIG RMK SH NE HZ
Conditions at: MSLP (EL SALVADOR INT , SV) observed 2250 UTC 18 April 2019
Temperature: 29.0°C (84°F)
Dewpoint: 24.0°C (75°F) [RH = 74%]
Pressure (altimeter): 29.76 inches Hg (1008.0 mb)
Winds: from the SW (220 degrees) at 7 MPH (6 knots; 3.1 m/s)
Visibility: 6 or more miles (10+ km)
Ceiling: 2300 feet AGL
Clouds: broken clouds at 2300 feet AGL
Weather: VCSH  (showers in vicinity)

METAR text: MSLP 182150Z 22010KT 190V250 9999 SCT020 BKN027 FEW037CB 30/24 Q1007 A2976 NOSIG RMK CB NE HZ
Conditions at: MSLP (EL SALVADOR INT , SV) observed 2150 UTC 18 April 2019
Temperature: 30.0°C (86°F)
Dewpoint: 24.0°C (75°F) [RH = 70%]
Pressure (altimeter): 29.73 inches Hg (1007.0 mb)
Winds: from the SW (220 degrees) at 12 MPH (10 knots; 5.1 m/s)
Visibility: 6 or more miles (10+ km)
Ceiling: 2700 feet AGL
Clouds: scattered clouds at 2000 feet AGL
broken clouds at 2700 feet AGL
few clouds at 3700 feet AGL
Weather: no significant weather observed at this time

METAR text: MSLP 182050Z 21011KT 180V240 9999 VCSH SCT020 BKN030 FEW037CB 30/25 Q1008 A2976 NOSIG RMK CB NE HZ
Conditions at: MSLP (EL SALVADOR INT , SV) observed 2050 UTC 18 April 2019
Temperature: 30.0°C (86°F)
Dewpoint: 25.0°C (77°F) [RH = 75%]
Pressure (altimeter): 29.76 inches Hg (1008.0 mb)
Winds: from the SSW (210 degrees) at 13 MPH (11 knots; 5.7 m/s)
Visibility: 6 or more miles (10+ km)
Ceiling: 3000 feet AGL
Clouds: scattered clouds at 2000 feet AGL
broken clouds at 3000 feet AGL
few clouds at 3700 feet AGL
Weather: VCSH  (showers in vicinity)

METAR text: MSLP 181950Z 22013KT 180V250 9999 VCSH SCT020 BKN030 FEW037CB 31/23 Q1008 A2978 RMK CB/SH NE
Conditions at: MSLP (EL SALVADOR INT , SV) observed 1950 UTC 18 April 2019
Temperature: 31.0°C (88°F)
Dewpoint: 23.0°C (73°F) [RH = 63%]
Pressure (altimeter): 29.76 inches Hg (1008.0 mb)
Winds: from the SW (220 degrees) at 15 MPH (13 knots; 6.7 m/s)
Visibility: 6 or more miles (10+ km)
Ceiling: 3000 feet AGL
Clouds: scattered clouds at 2000 feet AGL
broken clouds at 3000 feet AGL
few clouds at 3700 feet AGL
Weather: VCSH  (showers in vicinity)

METAR text: MSLP 181850Z 21011KT 190V250 9000 VCSH SCT023 BKN035 FEW037CB 31/23 Q1009 A2980 RMK CB NE
Conditions at: MSLP (EL SALVADOR INT , SV) observed 1850 UTC 18 April 2019
Temperature: 31.0°C (88°F)
Dewpoint: 23.0°C (73°F) [RH = 63%]
Pressure (altimeter): 29.79 inches Hg (1009.0 mb)
Winds: from the SSW (210 degrees) at 13 MPH (11 knots; 5.7 m/s)
Visibility: 6 miles ( 9 km)
Ceiling: 3500 feet AGL
Clouds: scattered clouds at 2300 feet AGL
broken clouds at 3500 feet AGL
few clouds at 3700 feet AGL
Weather: VCSH  (showers in vicinity)

METAR text: MSLP 181750Z 23013KT 9000 SCT023 BKN035 31/24 Q1010 A2982 TEMPO 7000 SHRA RMK HZ
Conditions at: MSLP (EL SALVADOR INT , SV) observed 1750 UTC 18 April 2019
Temperature: 31.0°C (88°F)
Dewpoint: 24.0°C (75°F) [RH = 66%]
Pressure (altimeter): 29.82 inches Hg (1010.0 mb)
Winds: from the SW (230 degrees) at 15 MPH (13 knots; 6.7 m/s)
Visibility: 6 miles ( 9 km)
Ceiling: 3500 feet AGL
Clouds: scattered clouds at 2300 feet AGL
broken clouds at 3500 feet AGL
Weather: no significant weather observed at this time

METAR text: MSLP 181650Z 22009G19KT 160V250 9000 FEW023 SCT035 32/23 Q1010 A2983 NOSIG RMK HZ
Conditions at: MSLP (EL SALVADOR INT , SV) observed 1650 UTC 18 April 2019
Temperature: 32.0°C (90°F)
Dewpoint: 23.0°C (73°F) [RH = 59%]
Pressure (altimeter): 29.82 inches Hg (1010.0 mb)
Winds: from the SW (220 degrees) at 10 MPH (9 knots; 4.6 m/s)
gusting to 22 MPH (19 knots; 9.8 m/s)
Visibility: 6 miles ( 9 km)
Ceiling: at least 12,000 feet AGL
Clouds: few clouds at 2300 feet AGL
scattered clouds at 3500 feet AGL
Weather: no significant weather observed at this time

METAR text: MSLP 181634Z 19010G20KT 160V230 9000 FEW023 SCT035 32/23 Q1010 NOSIG RMK HZ
Conditions at: MSLP (EL SALVADOR INT , SV) observed 1634 UTC 18 April 2019
Temperature: 32.0°C (90°F)
Dewpoint: 23.0°C (73°F) [RH = 59%]
Pressure (altimeter): 29.82 inches Hg (1010.0 mb)
Winds: from the S (190 degrees) at 12 MPH (10 knots; 5.1 m/s)
gusting to 23 MPH (20 knots; 10.3 m/s)
Visibility: 6 miles ( 9 km)
Ceiling: at least 12,000 feet AGL
Clouds: few clouds at 2300 feet AGL
scattered clouds at 3500 feet AGL
Weather: no significant weather observed at this time

METAR text: MSLP 181550Z 20005KT 090V250 9000 FEW023 FEW033TCU SCT035 32/23 Q1010 A2984 RMK HZ TCU SW
Conditions at: MSLP (EL SALVADOR INT , SV) observed 1550 UTC 18 April 2019
Temperature: 32.0°C (90°F)
Dewpoint: 23.0°C (73°F) [RH = 59%]
Pressure (altimeter): 29.82 inches Hg (1010.0 mb)
Winds: from the SSW (200 degrees) at 6 MPH (5 knots; 2.6 m/s)
Visibility: 6 miles ( 9 km)
Ceiling: at least 12,000 feet AGL
Clouds: few clouds at 2300 feet AGL
few clouds at 3300 feet AGL
scattered clouds at 3500 feet AGL
Weather: no significant weather observed at this time

METAR text: MSLP 181450Z VRB02KT 9000 FEW023 SCT077 32/24 Q1010 A2984 NOSIG RMK HZ
Conditions at: MSLP (EL SALVADOR INT , SV) observed 1450 UTC 18 April 2019
Temperature: 32.0°C (90°F)
Dewpoint: 24.0°C (75°F) [RH = 63%]
Pressure (altimeter): 29.82 inches Hg (1010.0 mb)
Winds: variable direction winds at 2 MPH (2 knots; 1.0 m/s)
Visibility: 6 miles ( 9 km)
Ceiling: at least 12,000 feet AGL
Clouds: few clouds at 2300 feet AGL
scattered clouds at 7700 feet AGL
Weather: no significant weather observed at this time

METAR text: MSLP 181427Z 08004KT 050V130 8000 FEW023 SCT077 31/24 Q1010 NOSIG RMK HZ
Conditions at: MSLP (EL SALVADOR INT , SV) observed 1427 UTC 18 April 2019
Temperature: 31.0°C (88°F)
Dewpoint: 24.0°C (75°F) [RH = 66%]
Pressure (altimeter): 29.82 inches Hg (1010.0 mb)
Winds: from the E (80 degrees) at 5 MPH (4 knots; 2.1 m/s)
Visibility: 5 miles ( 8 km)
Ceiling: at least 12,000 feet AGL
Clouds: few clouds at 2300 feet AGL
scattered clouds at 7700 feet AGL
Weather: no significant weather observed at this time

METAR text: MSLP 181350Z 35004KT 8000 FEW027 BKN070 29/23 Q1010 A2982 NOSIG RMK HZ
Conditions at: MSLP (EL SALVADOR INT , SV) observed 1350 UTC 18 April 2019
Temperature: 29.0°C (84°F)
Dewpoint: 23.0°C (73°F) [RH = 70%]
Pressure (altimeter): 29.82 inches Hg (1010.0 mb)
Winds: from the N (350 degrees) at 5 MPH (4 knots; 2.1 m/s)
Visibility: 5 miles ( 8 km)
Ceiling: 7000 feet AGL
Clouds: few clouds at 2700 feet AGL
broken clouds at 7000 feet AGL
Weather: no significant weather observed at this time

METAR text: MSLP 181335Z VRB02KT 8000 FEW027 BKN070 29/23 Q1009 NOSIG RMK HZ
Conditions at: MSLP (EL SALVADOR INT , SV) observed 1335 UTC 18 April 2019
Temperature: 29.0°C (84°F)
Dewpoint: 23.0°C (73°F) [RH = 70%]
Pressure (altimeter): 29.79 inches Hg (1009.0 mb)
Winds: variable direction winds at 2 MPH (2 knots; 1.0 m/s)
Visibility: 5 miles ( 8 km)
Ceiling: 7000 feet AGL
Clouds: few clouds at 2700 feet AGL
broken clouds at 7000 feet AGL
Weather: no significant weather observed at this time

METAR text: MSLP 181250Z 35003KT 9000 FEW027 BKN070 27/22 Q1009 A2980 NOSIG RMK HZ
Conditions at: MSLP (EL SALVADOR INT , SV) observed 1250 UTC 18 April 2019
Temperature: 27.0°C (81°F)
Dewpoint: 22.0°C (72°F) [RH = 74%]
Pressure (altimeter): 29.79 inches Hg (1009.0 mb)
Winds: from the N (350 degrees) at 3 MPH (3 knots; 1.5 m/s)
Visibility: 6 miles ( 9 km)
Ceiling: 7000 feet AGL
Clouds: few clouds at 2700 feet AGL
broken clouds at 7000 feet AGL
Weather: no significant weather observed at this time

METAR text: MSLP 181150Z VRB02KT 8000 FEW040 BKN070 26/22 Q1008 A2979 NOSIG RMK HZ
Conditions at: MSLP (EL SALVADOR INT , SV) observed 1150 UTC 18 April 2019
Temperature: 26.0°C (79°F)
Dewpoint: 22.0°C (72°F) [RH = 79%]
Pressure (altimeter): 29.76 inches Hg (1008.0 mb)
Winds: variable direction winds at 2 MPH (2 knots; 1.0 m/s)
Visibility: 5 miles ( 8 km)
Ceiling: 7000 feet AGL
Clouds: few clouds at 4000 feet AGL
broken clouds at 7000 feet AGL
Weather: no significant weather observed at this time

METAR text: MSLP 181050Z 03003KT 9000 FEW066 BKN079 26/22 Q1008 A2977 NOSIG RMK HZ
Conditions at: MSLP (EL SALVADOR INT , SV) observed 1050 UTC 18 April 2019
Temperature: 26.0°C (79°F)
Dewpoint: 22.0°C (72°F) [RH = 79%]
Pressure (altimeter): 29.76 inches Hg (1008.0 mb)
Winds: from the NNE (30 degrees) at 3 MPH (3 knots; 1.5 m/s)
Visibility: 6 miles ( 9 km)
Ceiling: 7900 feet AGL
Clouds: few clouds at 6600 feet AGL
broken clouds at 7900 feet AGL
Weather: no significant weather observed at this time

METAR text: MSLP 180950Z 03003KT 9000 SCT076 25/23 Q1008 A2976 NOSIG RMK HZ
Conditions at: MSLP (EL SALVADOR INT , SV) observed 0950 UTC 18 April 2019
Temperature: 25.0°C (77°F)
Dewpoint: 23.0°C (73°F) [RH = 89%]
Pressure (altimeter): 29.76 inches Hg (1008.0 mb)
Winds: from the NNE (30 degrees) at 3 MPH (3 knots; 1.5 m/s)
Visibility: 6 miles ( 9 km)
Ceiling: at least 12,000 feet AGL
Clouds: scattered clouds at 7600 feet AGL
Weather: no significant weather observed at this time

METAR text: MSLP 180850Z 03005KT 9000 FEW079 27/23 Q1008 A2977 NOSIG RMK HZ
Conditions at: MSLP (EL SALVADOR INT , SV) observed 0850 UTC 18 April 2019
Temperature: 27.0°C (81°F)
Dewpoint: 23.0°C (73°F) [RH = 79%]
Pressure (altimeter): 29.76 inches Hg (1008.0 mb)
Winds: from the NNE (30 degrees) at 6 MPH (5 knots; 2.6 m/s)
Visibility: 6 miles ( 9 km)
Ceiling: at least 12,000 feet AGL
Clouds: few clouds at 7900 feet AGL
Weather: no significant weather observed at this time

METAR text: MSLP 180750Z 03005KT 8000 BKN079 27/23 Q1008 A2978 NOSIG RMK HZ
Conditions at: MSLP (EL SALVADOR INT , SV) observed 0750 UTC 18 April 2019
Temperature: 27.0°C (81°F)
Dewpoint: 23.0°C (73°F) [RH = 79%]
Pressure (altimeter): 29.76 inches Hg (1008.0 mb)
Winds: from the NNE (30 degrees) at 6 MPH (5 knots; 2.6 m/s)
Visibility: 5 miles ( 8 km)
Ceiling: 7900 feet AGL
Clouds: broken clouds at 7900 feet AGL
Weather: no significant weather observed at this time

METAR text: MSLP 180650Z 12004KT 8000 BKN079 27/23 Q1009 A2982 NOSIG RMK HZ
Conditions at: MSLP (EL SALVADOR INT , SV) observed 0650 UTC 18 April 2019
Temperature: 27.0°C (81°F)
Dewpoint: 23.0°C (73°F) [RH = 79%]
Pressure (altimeter): 29.79 inches Hg (1009.0 mb)
Winds: from the ESE (120 degrees) at 5 MPH (4 knots; 2.1 m/s)
Visibility: 5 miles ( 8 km)
Ceiling: 7900 feet AGL
Clouds: broken clouds at 7900 feet AGL
Weather: no significant weather observed at this time

METAR text: MSLP 180550Z 13003KT 9000 8000NE SCT077 27/23 Q1009 A2982 NOSIG RMK HZ
Conditions at: MSLP (EL SALVADOR INT , SV) observed 0550 UTC 18 April 2019
Temperature: 27.0°C (81°F)
Dewpoint: 23.0°C (73°F) [RH = 79%]
Pressure (altimeter): 29.79 inches Hg (1009.0 mb)
Winds: from the SE (130 degrees) at 3 MPH (3 knots; 1.5 m/s)
Visibility: 6 miles ( 9 km)
Ceiling: at least 12,000 feet AGL
Clouds: scattered clouds at 7700 feet AGL
Weather: no significant weather observed at this time

METAR text: MSLP 180450Z VRB01KT 9000 8000NE NSC 27/22 Q1010 A2983 NOSIG RMK HZ
Conditions at: MSLP (EL SALVADOR INT , SV) observed 0450 UTC 18 April 2019
Temperature: 27.0°C (81°F)
Dewpoint: 22.0°C (72°F) [RH = 74%]
Pressure (altimeter): 29.82 inches Hg (1010.0 mb)
Winds: variable direction winds at 1 MPH (1 knots; 0.5 m/s)
Visibility: 6 miles ( 9 km)
Ceiling: at least 12,000 feet AGL
Clouds: sky clear below 12,000 feet AGL
Weather: no significant weather observed at this time

METAR text: MSLP 180350Z 30004KT 9000 8000NE NSC 28/22 Q1010 A2984 NOSIG RMK HZ DSTN CB LTG N
Conditions at: MSLP (EL SALVADOR INT , SV) observed 0350 UTC 18 April 2019
Temperature: 28.0°C (82°F)
Dewpoint: 22.0°C (72°F) [RH = 70%]
Pressure (altimeter): 29.82 inches Hg (1010.0 mb)
Winds: from the WNW (300 degrees) at 5 MPH (4 knots; 2.1 m/s)
Visibility: 6 miles ( 9 km)
Ceiling: at least 12,000 feet AGL
Clouds: sky clear below 12,000 feet AGL
Weather: no significant weather observed at this time

METAR text: MSLP 180250Z 29006KT 9000 8000NE FEW078 29/23 Q1010 A2983 NOSIG RMK HZ
Conditions at: MSLP (EL SALVADOR INT , SV) observed 0250 UTC 18 April 2019
Temperature: 29.0°C (84°F)
Dewpoint: 23.0°C (73°F) [RH = 70%]
Pressure (altimeter): 29.82 inches Hg (1010.0 mb)
Winds: from the WNW (290 degrees) at 7 MPH (6 knots; 3.1 m/s)
Visibility: 6 miles ( 9 km)
Ceiling: at least 12,000 feet AGL
Clouds: few clouds at 7800 feet AGL
Weather: no significant weather observed at this time

METAR text: MSLP 180150Z 29007KT 9000 8000NE FEW079 29/24 Q1009 A2981 NOSIG RMK HZ
Conditions at: MSLP (EL SALVADOR INT , SV) observed 0150 UTC 18 April 2019
Temperature: 29.0°C (84°F)
Dewpoint: 24.0°C (75°F) [RH = 74%]
Pressure (altimeter): 29.79 inches Hg (1009.0 mb)
Winds: from the WNW (290 degrees) at 8 MPH (7 knots; 3.6 m/s)
Visibility: 6 miles ( 9 km)
Ceiling: at least 12,000 feet AGL
Clouds: few clouds at 7900 feet AGL
Weather: no significant weather observed at this time

METAR text: MSLP 180050Z 27007KT 9999 8000NE FEW077 29/24 Q1009 A2980 NOSIG RMK HZ
Conditions at: MSLP (EL SALVADOR INT , SV) observed 0050 UTC 18 April 2019
Temperature: 29.0°C (84°F)
Dewpoint: 24.0°C (75°F) [RH = 74%]
Pressure (altimeter): 29.79 inches Hg (1009.0 mb)
Winds: from the W (270 degrees) at 8 MPH (7 knots; 3.6 m/s)
Visibility: 6 or more miles (10+ km)
Ceiling: at least 12,000 feet AGL
Clouds: few clouds at 7700 feet AGL
Weather: no significant weather observed at this time

METAR text: MSLP 172350Z 24007KT 9999 8000NE FEW025 30/24 Q1008 A2978 NOSIG RMK HZ
Conditions at: MSLP (EL SALVADOR INT , SV) observed 2350 UTC 17 April 2019
Temperature: 30.0°C (86°F)
Dewpoint: 24.0°C (75°F) [RH = 70%]
Pressure (altimeter): 29.76 inches Hg (1008.0 mb)
Winds: from the WSW (240 degrees) at 8 MPH (7 knots; 3.6 m/s)
Visibility: 6 or more miles (10+ km)
Ceiling: at least 12,000 feet AGL
Clouds: few clouds at 2500 feet AGL
Weather: no significant weather observed at this time

METAR text: MSLP 172250Z 23008KT 200V260 9999 8000NE FEW020 31/23 Q1008 A2976 NOSIG RMK HZ
Conditions at: MSLP (EL SALVADOR INT , SV) observed 2250 UTC 17 April 2019
Temperature: 31.0°C (88°F)
Dewpoint: 23.0°C (73°F) [RH = 63%]
Pressure (altimeter): 29.76 inches Hg (1008.0 mb)
Winds: from the SW (230 degrees) at 9 MPH (8 knots; 4.1 m/s)
Visibility: 6 or more miles (10+ km)
Ceiling: at least 12,000 feet AGL
Clouds: few clouds at 2000 feet AGL
Weather: no significant weather observed at this time

METAR text: MSLP 172150Z 22008KT 180V260 9999 8000NE FEW047 31/24 Q1008 A2976 NOSIG RMK HZ
Conditions at: MSLP (EL SALVADOR INT , SV) observed 2150 UTC 17 April 2019
Temperature: 31.0°C (88°F)
Dewpoint: 24.0°C (75°F) [RH = 66%]
Pressure (altimeter): 29.76 inches Hg (1008.0 mb)
Winds: from the SW (220 degrees) at 9 MPH (8 knots; 4.1 m/s)
Visibility: 6 or more miles (10+ km)
Ceiling: at least 12,000 feet AGL
Clouds: few clouds at 4700 feet AGL
Weather: no significant weather observed at this time

METAR text: MSLP 172050Z 19008KT 140V240 9999 8000NE SCT022 31/24 Q1008 A2977 NOSIG RMK HZ
Conditions at: MSLP (EL SALVADOR INT , SV) observed 2050 UTC 17 April 2019
Temperature: 31.0°C (88°F)
Dewpoint: 24.0°C (75°F) [RH = 66%]
Pressure (altimeter): 29.76 inches Hg (1008.0 mb)
Winds: from the S (190 degrees) at 9 MPH (8 knots; 4.1 m/s)
Visibility: 6 or more miles (10+ km)
Ceiling: at least 12,000 feet AGL
Clouds: scattered clouds at 2200 feet AGL
Weather: no significant weather observed at this time

Forecast for: MSLP (EL SALVADOR INT , SV)
Text: TAF MSLP 190325Z 1906/2006 06006KT 8000 SCT023 SCT060 TX31/1918Z TN25/1912Z
Forecast period: 0600 to 1800 UTC 19 April 2019
Forecast type: FROM: standard forecast or significant change
Winds: from the ENE (60 degrees) at 7 MPH (6 knots; 3.1 m/s)
Visibility: 5 miles (8 km)
Ceiling: at least 12,000 feet AGL
Clouds: scattered clouds at 2300 feet AGL
scattered clouds at 6000 feet AGL
Weather: no significant weather forecast for this period
Text: FM191800 18010KT 8000 SCT020 FEW037CB
Forecast period: 1800 UTC 19 April 2019 to 0600 UTC 20 April 2019
Forecast type: FROM: standard forecast or significant change
Winds: from the S (180 degrees) at 12 MPH (10 knots; 5.1 m/s)
Visibility: 5 miles (8 km)
Ceiling: at least 12,000 feet AGL
Clouds: scattered clouds at 2000 feet AGL
few clouds at 3700 feet AGL
Weather: no significant weather forecast for this period
Text: TEMPO 1919/1922 6000 SHRA
Forecast period: 1900 to 2200 UTC 19 April 2019
Forecast type: TEMPORARY: The following changes expected for less than half the time period
Visibility: 4 miles (6 km)
Ceiling: unknown
Clouds: missing
Weather: SHRA  (rain showers)